Time;durP1;ratioP1;P1;durP2;ratioP2;P2;SDS_P1;SDS_P2;PMS_P1;PMS_P2;Temp;Humidity;BMP_temperature;BMP_pressure;BME280_temperature;BME280_humidity;BME280_pressure;Samples;Min_cycle;Max_cycle;Signal;HPM_P1;HPM_P2
2023/05/25 00:02:03;;;;;;;6.33;4.23;;;9.50;99.90;;;;;;4997761;28;20168;-70
2023/05/25 00:04:33;;;;;;;4.60;3.33;;;9.50;99.90;;;;;;5015115;28;20256;-70
2023/05/25 00:06:59;;;;;;;5.00;3.40;;;9.40;99.90;;;;;;5014880;28;20474;-70
2023/05/25 00:09:25;;;;;;;6.73;4.47;;;9.40;99.90;;;;;;5015100;28;20431;-70
2023/05/25 00:11:51;;;;;;;5.97;4.97;;;9.40;99.90;;;;;;5014981;28;20438;-70
2023/05/25 00:14:17;;;;;;;7.00;3.47;;;9.40;99.90;;;;;;5013411;28;20191;-70
2023/05/25 00:16:44;;;;;;;6.43;4.50;;;9.30;99.90;;;;;;5014559;28;20399;-71
2023/05/25 00:19:10;;;;;;;7.70;3.83;;;9.30;99.90;;;;;;5014486;28;20414;-71
2023/05/25 00:21:39;;;;;;;3.90;2.90;;;9.30;99.90;;;;;;5014634;28;20407;-71
2023/05/25 00:24:05;;;;;;;5.10;3.33;;;9.30;99.90;;;;;;5014446;28;20402;-71
2023/05/25 00:26:31;;;;;;;6.00;3.87;;;9.20;99.90;;;;;;5014474;28;20446;-70
2023/05/25 00:28:59;;;;;;;5.77;3.23;;;9.20;99.90;;;;;;5014195;28;20851;-71
2023/05/25 00:31:25;;;;;;;8.93;4.80;;;9.20;99.90;;;;;;5014541;28;20247;-71
2023/05/25 00:33:50;;;;;;;4.00;3.60;;;9.20;99.90;;;;;;5014407;28;20820;-71
2023/05/25 00:36:16;;;;;;;7.50;4.57;;;9.10;99.90;;;;;;5014395;28;20596;-71
2023/05/25 00:38:41;;;;;;;3.70;3.30;;;9.10;99.90;;;;;;5013919;28;20556;-71
2023/05/25 00:41:07;;;;;;;6.10;3.50;;;9.10;99.90;;;;;;5014307;28;20207;-70
2023/05/25 00:43:32;;;;;;;3.93;3.43;;;9.10;99.90;;;;;;5014108;28;20172;-71
2023/05/25 00:45:58;;;;;;;5.80;3.63;;;9.00;99.90;;;;;;5014056;28;20195;-71
2023/05/25 00:48:25;;;;;;;9.87;3.87;;;9.00;99.90;;;;;;5013707;28;20184;-70
2023/05/25 00:50:56;;;;;;;5.00;2.87;;;9.00;99.90;;;;;;5014072;28;20626;-71
2023/05/25 00:53:22;;;;;;;3.60;3.30;;;9.00;99.90;;;;;;5014050;28;20384;-70
2023/05/25 00:56:19;;;;;;;3.80;2.67;;;9.00;99.90;;;;;;5014051;28;20395;-71
2023/05/25 00:58:48;;;;;;;4.03;3.37;;;9.00;99.90;;;;;;5013659;28;20184;-71
2023/05/25 01:01:14;;;;;;;5.77;3.50;;;8.90;99.90;;;;;;5013741;28;20411;-70
2023/05/25 01:03:44;;;;;;;5.73;3.80;;;8.90;99.90;;;;;;5013497;28;20418;-71
2023/05/25 01:06:13;;;;;;;6.53;3.50;;;8.90;99.90;;;;;;5013766;28;20451;-70
2023/05/25 01:08:43;;;;;;;5.60;3.33;;;8.90;99.90;;;;;;5013092;28;20415;-71
2023/05/25 01:11:11;;;;;;;4.67;3.53;;;8.90;99.90;;;;;;5014002;28;20980;-70
2023/05/25 01:13:39;;;;;;;5.83;3.83;;;8.80;99.90;;;;;;5012170;28;20466;-71
2023/05/25 01:16:06;;;;;;;4.20;3.43;;;8.80;99.90;;;;;;5013621;28;20541;-71
2023/05/25 01:18:32;;;;;;;7.40;3.43;;;8.80;99.90;;;;;;5013226;28;20419;-71
2023/05/25 01:21:13;;;;;;;7.00;4.03;;;8.80;99.90;;;;;;5013577;28;20411;-71
2023/05/25 01:24:07;;;;;;;11.33;3.87;;;8.80;99.90;;;;;;5013495;28;20404;-70
2023/05/25 01:26:38;;;;;;;7.53;3.80;;;8.80;99.90;;;;;;5012870;28;20446;-70
2023/05/25 01:29:05;;;;;;;5.87;3.73;;;8.70;99.90;;;;;;5013026;28;20474;-71
2023/05/25 01:31:33;;;;;;;4.50;3.70;;;8.70;99.90;;;;;;5013281;28;20415;-70
2023/05/25 01:33:59;;;;;;;8.60;4.33;;;8.70;99.90;;;;;;5013229;28;20406;-71
2023/05/25 01:36:25;;;;;;;8.33;3.80;;;8.70;99.90;;;;;;5013223;28;20784;-71
2023/05/25 01:38:51;;;;;;;6.60;4.03;;;8.70;99.90;;;;;;5012962;28;20203;-70
2023/05/25 01:41:16;;;;;;;10.97;4.63;;;8.70;99.90;;;;;;5013086;28;20823;-70
2023/05/25 01:43:42;;;;;;;5.47;4.17;;;8.60;99.90;;;;;;5013169;28;20674;-70
2023/05/25 01:46:25;;;;;;;5.50;3.73;;;8.60;99.90;;;;;;5013009;28;20235;-71
2023/05/25 01:49:07;;;;;;;7.70;4.30;;;8.60;99.90;;;;;;5012657;28;20195;-70
2023/05/25 01:51:59;;;;;;;8.17;4.37;;;8.60;99.90;;;;;;5013004;28;20486;-71
2023/05/25 01:54:34;;;;;;;4.50;3.53;;;8.60;99.90;;;;;;4994483;28;20418;-71
2023/05/25 01:57:02;;;;;;;4.90;4.10;;;8.60;99.90;;;;;;5012599;28;20568;-71
2023/05/25 01:59:30;;;;;;;5.67;3.70;;;8.60;99.90;;;;;;5013147;28;20408;-70
2023/05/25 02:01:56;;;;;;;5.97;3.93;;;8.60;99.90;;;;;;5012773;28;20408;-70
2023/05/25 02:04:22;;;;;;;5.67;4.60;;;8.50;99.90;;;;;;5012896;28;20771;-71
2023/05/25 02:06:50;;;;;;;6.37;4.17;;;8.50;99.90;;;;;;5012407;28;20454;-71
2023/05/25 02:09:15;;;;;;;4.37;3.97;;;8.50;99.90;;;;;;5012701;28;20439;-70
2023/05/25 02:11:41;;;;;;;3.73;3.43;;;8.50;99.90;;;;;;5012608;28;20482;-71
2023/05/25 02:14:07;;;;;;;4.73;3.70;;;8.50;99.90;;;;;;5012616;28;20202;-71
2023/05/25 02:16:33;;;;;;;5.93;3.73;;;8.50;99.90;;;;;;5012554;28;20169;-71
2023/05/25 02:18:59;;;;;;;5.73;3.47;;;8.50;99.90;;;;;;5012261;28;20430;-70
2023/05/25 02:21:25;;;;;;;5.27;3.90;;;8.50;99.90;;;;;;5012585;28;20198;-71
2023/05/25 02:23:52;;;;;;;5.53;4.40;;;8.40;99.90;;;;;;5012494;28;20161;-70
2023/05/25 02:26:18;;;;;;;4.80;3.83;;;8.40;99.90;;;;;;5012456;28;20188;-71
2023/05/25 02:28:44;;;;;;;8.63;3.70;;;8.40;99.90;;;;;;5012039;28;20476;-70
2023/05/25 02:31:09;;;;;;;10.57;3.80;;;8.40;99.90;;;;;;5012461;28;20395;-71
2023/05/25 02:33:35;;;;;;;4.40;4.00;;;8.40;99.90;;;;;;5012320;28;20621;-71
2023/05/25 02:36:01;;;;;;;8.67;4.57;;;8.30;99.90;;;;;;5012202;28;20620;-71
2023/05/25 02:38:26;;;;;;;6.13;4.80;;;8.40;99.90;;;;;;5011102;28;20271;-70
2023/05/25 02:40:52;;;;;;;8.77;4.77;;;8.30;99.90;;;;;;5012363;28;20529;-71
2023/05/25 02:43:17;;;;;;;6.30;4.20;;;8.30;99.90;;;;;;5012353;28;20848;-71
2023/05/25 02:45:43;;;;;;;4.53;4.10;;;8.30;99.90;;;;;;5012203;28;20172;-71
2023/05/25 02:48:09;;;;;;;7.73;4.00;;;8.30;99.90;;;;;;5011854;28;20191;-70
2023/05/25 02:50:34;;;;;;;6.90;4.37;;;8.30;99.90;;;;;;4994549;28;20423;-70
2023/05/25 02:53:00;;;;;;;7.60;4.37;;;8.30;99.90;;;;;;5012212;28;20241;-71
2023/05/25 02:55:25;;;;;;;4.93;3.67;;;8.20;99.90;;;;;;5012155;28;20218;-71
2023/05/25 02:57:51;;;;;;;6.70;4.43;;;8.20;99.90;;;;;;5011686;28;20666;-70
2023/05/25 03:00:19;;;;;;;5.60;4.13;;;8.20;99.90;;;;;;5012137;28;20168;-70
2023/05/25 03:02:45;;;;;;;5.97;4.60;;;8.20;99.90;;;;;;5011986;28;20272;-71
2023/05/25 03:05:11;;;;;;;7.67;5.63;;;8.20;99.90;;;;;;5011965;28;20901;-70
2023/05/25 03:07:36;;;;;;;6.50;3.63;;;8.20;99.90;;;;;;5011242;28;20463;-71
2023/05/25 03:10:02;;;;;;;8.40;4.00;;;8.10;99.90;;;;;;5011935;28;20179;-70
2023/05/25 03:12:28;;;;;;;5.43;4.00;;;8.10;99.90;;;;;;5011932;28;20188;-71
2023/05/25 03:14:53;;;;;;;6.93;3.90;;;8.10;99.90;;;;;;5011984;28;20230;-70
2023/05/25 03:17:19;;;;;;;4.53;3.90;;;8.10;99.90;;;;;;5011686;28;20637;-71
2023/05/25 03:19:44;;;;;;;5.30;3.87;;;8.00;99.90;;;;;;5011905;28;20196;-71
2023/05/25 03:22:10;;;;;;;5.60;4.17;;;8.00;99.90;;;;;;5012078;28;20161;-71
2023/05/25 03:24:40;;;;;;;7.73;4.80;;;8.00;99.90;;;;;;5011760;28;20226;-71
2023/05/25 03:27:06;;;;;;;4.63;3.37;;;8.00;99.90;;;;;;5011441;28;20196;-70
2023/05/25 03:29:31;;;;;;;13.33;4.67;;;8.00;99.90;;;;;;5011774;28;20494;-70
2023/05/25 03:31:57;;;;;;;8.90;4.63;;;8.00;99.90;;;;;;5011541;28;20495;-71
2023/05/25 03:34:23;;;;;;;7.00;4.93;;;8.00;99.90;;;;;;5011577;28;20247;-71
2023/05/25 03:36:49;;;;;;;4.63;3.80;;;8.00;99.90;;;;;;5011651;28;20642;-69
2023/05/25 03:39:14;;;;;;;4.53;4.03;;;8.10;99.90;;;;;;5011807;28;20510;-71
2023/05/25 03:41:41;;;;;;;5.03;3.87;;;8.10;99.90;;;;;;5011689;28;20164;-71
2023/05/25 03:44:09;;;;;;;6.47;4.70;;;8.10;99.90;;;;;;5011709;28;20215;-71
2023/05/25 03:46:35;;;;;;;7.63;4.80;;;8.10;99.90;;;;;;5011540;28;20454;-71
2023/05/25 03:49:00;;;;;;;7.27;5.20;;;8.10;99.90;;;;;;5012724;28;20419;-70
2023/05/25 03:51:28;;;;;;;6.70;5.20;;;8.10;99.90;;;;;;5015195;28;20250;-70
2023/05/25 03:53:53;;;;;;;10.40;5.20;;;8.20;99.90;;;;;;5015048;28;20163;-71
2023/05/25 03:56:20;;;;;;;5.60;4.60;;;8.20;99.90;;;;;;5014975;28;20411;-71
2023/05/25 03:58:45;;;;;;;6.20;5.40;;;8.20;99.90;;;;;;4997089;28;20218;-71
2023/05/25 04:01:12;;;;;;;7.87;4.23;;;8.30;99.90;;;;;;5014989;28;20411;-71
2023/05/25 04:03:37;;;;;;;4.93;4.33;;;8.30;99.90;;;;;;5015066;28;20160;-71
2023/05/25 04:06:03;;;;;;;6.67;4.87;;;8.30;99.90;;;;;;5014872;28;20458;-71
2023/05/25 04:08:29;;;;;;;6.23;5.23;;;8.40;99.90;;;;;;5014549;28;20191;-70
2023/05/25 04:10:55;;;;;;;9.47;4.50;;;8.50;99.90;;;;;;5014931;28;20247;-70
2023/05/25 04:13:20;;;;;;;13.33;4.93;;;8.50;99.90;;;;;;5014400;28;20271;-70
2023/05/25 04:15:46;;;;;;;7.87;4.73;;;8.60;99.90;;;;;;5014800;28;20490;-71
2023/05/25 04:18:11;;;;;;;7.90;5.80;;;8.70;99.90;;;;;;5013653;28;20194;-71
2023/05/25 04:20:37;;;;;;;12.50;4.80;;;8.70;99.90;;;;;;5014136;28;20175;-70
2023/05/25 04:23:03;;;;;;;7.10;5.50;;;8.80;99.90;;;;;;5014628;28;20248;-70
2023/05/25 04:25:28;;;;;;;5.30;4.67;;;8.90;99.90;;;;;;5014744;28;20169;-71
2023/05/25 04:27:55;;;;;;;6.50;4.80;;;9.00;99.90;;;;;;5014158;28;20200;-71
2023/05/25 04:30:21;;;;;;;14.93;5.90;;;9.10;99.90;;;;;;5014597;28;20595;-70
2023/05/25 04:32:46;;;;;;;8.53;4.53;;;9.10;99.90;;;;;;5014482;28;20554;-70
2023/05/25 04:35:15;;;;;;;7.43;4.60;;;9.30;99.90;;;;;;5014453;28;20487;-71
2023/05/25 04:37:41;;;;;;;13.50;5.90;;;9.30;99.90;;;;;;5013820;28;20255;-71
2023/05/25 04:40:12;;;;;;;10.87;5.17;;;9.50;99.90;;;;;;5014445;28;20426;-71
2023/05/25 04:42:39;;;;;;;10.10;5.93;;;9.50;99.90;;;;;;5014334;28;20168;-71
2023/05/25 04:45:09;;;;;;;7.77;5.60;;;9.60;99.90;;;;;;5014212;28;20407;-71
2023/05/25 04:47:36;;;;;;;6.53;5.30;;;9.70;99.90;;;;;;5013583;28;20451;-71
2023/05/25 04:50:03;;;;;;;5.53;4.53;;;9.80;99.90;;;;;;5014278;28;20407;-71
2023/05/25 04:52:28;;;;;;;12.60;5.77;;;9.90;99.90;;;;;;5014123;28;20414;-71
2023/05/25 04:54:54;;;;;;;9.10;5.43;;;10.10;99.90;;;;;;5014085;28;20395;-71
2023/05/25 04:57:19;;;;;;;8.30;5.27;;;10.20;99.90;;;;;;5013664;28;20192;-72
2023/05/25 04:59:45;;;;;;;8.20;5.10;;;10.30;99.90;;;;;;5013712;28;20168;-71
2023/05/25 05:02:10;;;;;;;10.47;5.77;;;10.40;99.90;;;;;;5013472;28;20214;-71
2023/05/25 05:04:36;;;;;;;6.40;5.20;;;10.50;99.90;;;;;;5013964;28;20183;-70
2023/05/25 05:07:02;;;;;;;13.60;6.83;;;10.60;99.90;;;;;;5013490;28;20318;-71
2023/05/25 05:09:27;;;;;;;18.67;5.60;;;10.80;99.90;;;;;;5013786;28;20192;-71
2023/05/25 05:11:53;;;;;;;10.20;4.90;;;10.90;99.90;;;;;;5013657;28;20168;-71
2023/05/25 05:14:18;;;;;;;9.67;6.13;;;11.10;99.90;;;;;;5013685;28;20255;-71
2023/05/25 05:16:44;;;;;;;11.90;5.57;;;11.20;99.90;;;;;;5012997;28;20177;-71
2023/05/25 05:19:10;;;;;;;7.77;5.47;;;11.40;99.90;;;;;;5013446;28;20172;-72
2023/05/25 05:21:35;;;;;;;9.67;4.93;;;11.50;99.90;;;;;;5013452;28;20279;-72
2023/05/25 05:24:01;;;;;;;10.17;6.50;;;11.70;99.90;;;;;;5013455;28;20164;-72
2023/05/25 05:26:27;;;;;;;7.23;4.70;;;11.90;99.90;;;;;;5013353;28;20520;-71
2023/05/25 05:28:53;;;;;;;8.70;5.23;;;12.10;99.90;;;;;;5013060;28;20180;-72
2023/05/25 05:31:20;;;;;;;8.70;5.90;;;12.40;99.90;;;;;;5013377;28;20407;-72
2023/05/25 05:33:45;;;;;;;7.60;5.20;;;12.70;99.90;;;;;;5013307;28;20161;-70
2023/05/25 05:36:11;;;;;;;6.03;5.13;;;13.10;99.90;;;;;;5013279;28;20410;-70
2023/05/25 05:38:39;;;;;;;19.67;5.73;;;13.40;99.90;;;;;;5012640;28;20707;-69
2023/05/25 05:41:10;;;;;;;6.50;4.70;;;13.80;99.90;;;;;;5013141;28;20172;-70
2023/05/25 05:43:35;;;;;;;6.70;4.90;;;14.30;99.90;;;;;;5013182;28;20485;-70
2023/05/25 05:46:01;;;;;;;4.57;4.07;;;14.70;99.90;;;;;;5013022;28;20435;-70
2023/05/25 05:48:26;;;;;;;9.93;6.40;;;15.20;99.90;;;;;;5012756;28;20250;-70
2023/05/25 05:50:52;;;;;;;9.40;5.80;;;15.60;99.90;;;;;;5013022;28;20160;-71
2023/05/25 05:53:17;;;;;;;9.57;5.30;;;16.00;99.90;;;;;;5012989;28;20169;-71
2023/05/25 05:55:43;;;;;;;10.67;6.00;;;16.40;99.90;;;;;;5012616;28;20195;-71
2023/05/25 05:58:08;;;;;;;9.80;5.23;;;16.80;99.90;;;;;;5012460;28;20184;-71
2023/05/25 06:00:34;;;;;;;17.30;6.03;;;17.40;99.90;;;;;;5012889;28;20530;-71
2023/05/25 06:02:59;;;;;;;7.40;5.17;;;18.10;99.90;;;;;;5012865;28;20169;-70
2023/05/25 06:05:25;;;;;;;6.87;5.03;;;18.80;99.90;;;;;;5012925;28;20507;-70
2023/05/25 06:07:51;;;;;;;11.20;5.70;;;19.50;99.90;;;;;;5012263;28;20192;-70
2023/05/25 06:10:16;;;;;;;5.93;5.23;;;20.30;99.90;;;;;;5012753;28;20168;-70
2023/05/25 06:12:42;;;;;;;6.80;5.00;;;21.00;99.90;;;;;;5011637;28;20204;-70
2023/05/25 06:15:08;;;;;;;10.60;5.40;;;21.60;99.90;;;;;;5012716;28;20171;-70
2023/05/25 06:17:34;;;;;;;12.07;5.63;;;22.30;99.90;;;;;;5012326;28;20802;-70
2023/05/25 06:20:00;;;;;;;7.40;4.00;;;22.90;99.90;;;;;;5012612;28;20477;-70
2023/05/25 06:22:27;;;;;;;5.50;4.40;;;23.60;96.40;;;;;;5012538;28;20442;-70
2023/05/25 06:24:53;;;;;;;7.90;4.17;;;24.10;90.90;;;;;;5012428;28;20184;-70
2023/05/25 06:27:19;;;;;;;7.47;4.37;;;24.70;81.20;;;;;;5011839;28;20809;-69
2023/05/25 06:29:44;;;;;;;9.63;4.43;;;25.20;74.70;;;;;;5012339;28;20251;-70
2023/05/25 06:32:10;;;;;;;6.20;4.17;;;25.60;69.80;;;;;;5012261;28;20268;-70
2023/05/25 06:34:36;;;;;;;11.80;3.53;;;26.10;65.30;;;;;;5012392;28;20188;-69
2023/05/25 06:37:01;;;;;;;8.53;4.20;;;26.70;62.00;;;;;;5011883;28;20203;-69
2023/05/25 06:39:27;;;;;;;12.20;4.33;;;27.20;59.30;;;;;;5012297;28;20403;-69
2023/05/25 06:41:52;;;;;;;5.40;3.30;;;27.80;56.30;;;;;;5012291;28;20179;-69
2023/05/25 06:44:18;;;;;;;9.30;4.27;;;28.30;53.80;;;;;;5012016;28;20183;-69
2023/05/25 06:46:43;;;;;;;8.47;4.13;;;28.70;51.90;;;;;;5012190;28;20211;-67
2023/05/25 06:49:09;;;;;;;7.80;4.40;;;29.20;50.40;;;;;;5011967;28;20554;-68
2023/05/25 06:51:36;;;;;;;10.23;3.40;;;29.60;48.70;;;;;;5012180;28;20701;-68
2023/05/25 06:54:02;;;;;;;12.43;3.93;;;30.00;47.70;;;;;;5011936;28;20255;-68
2023/05/25 06:56:27;;;;;;;10.17;5.03;;;30.40;46.70;;;;;;5012101;28;20442;-68
2023/05/25 06:58:53;;;;;;;13.43;4.83;;;30.90;45.70;;;;;;5011835;28;20967;-68
2023/05/25 07:01:18;;;;;;;6.90;3.80;;;31.20;44.60;;;;;;5012159;28;20196;-70
2023/05/25 07:03:44;;;;;;;7.03;3.60;;;31.60;43.00;;;;;;5012141;28;20173;-70
2023/05/25 07:06:11;;;;;;;9.40;4.97;;;32.10;42.70;;;;;;5011956;28;20615;-70
2023/05/25 07:08:36;;;;;;;8.83;3.63;;;32.80;41.50;;;;;;5011780;28;20215;-70
2023/05/25 07:11:02;;;;;;;8.00;3.60;;;33.40;40.40;;;;;;5011998;28;20415;-70
2023/05/25 07:13:27;;;;;;;7.67;3.70;;;34.10;39.30;;;;;;5011784;28;20192;-71
2023/05/25 07:15:53;;;;;;;3.80;2.93;;;34.70;38.30;;;;;;5011589;28;20286;-71
2023/05/25 07:18:19;;;;;;;6.30;3.93;;;35.30;37.30;;;;;;5011225;28;20214;-70
2023/05/25 07:20:45;;;;;;;6.33;4.00;;;35.90;36.10;;;;;;5011538;28;20175;-70
2023/05/25 07:23:11;;;;;;;6.70;3.60;;;36.50;35.30;;;;;;5011476;28;20183;-70
2023/05/25 07:25:37;;;;;;;8.30;4.47;;;36.90;34.50;;;;;;5015264;28;20908;-70
2023/05/25 07:28:03;;;;;;;8.03;4.67;;;37.50;33.80;;;;;;5014916;28;20832;-71
2023/05/25 07:30:29;;;;;;;8.80;4.47;;;38.20;33.10;;;;;;4997680;28;20425;-71
2023/05/25 07:32:55;;;;;;;5.90;4.80;;;39.00;32.10;;;;;;5015125;28;20181;-71
2023/05/25 07:35:21;;;;;;;6.27;3.33;;;39.80;31.20;;;;;;5015104;28;20765;-71
2023/05/25 07:37:55;;;;;;;8.60;4.20;;;40.50;30.50;;;;;;5014715;28;20534;-70
2023/05/25 07:40:21;;;;;;;8.30;4.80;;;41.20;29.20;;;;;;5015016;28;20217;-71
2023/05/25 07:42:46;;;;;;;6.43;4.00;;;41.80;28.40;;;;;;5015078;28;20813;-70
2023/05/25 07:45:12;;;;;;;8.17;4.53;;;42.40;28.20;;;;;;5014344;28;20184;-70
2023/05/25 07:47:37;;;;;;;5.07;4.17;;;43.10;27.50;;;;;;5014735;28;20211;-71
2023/05/25 07:50:03;;;;;;;5.80;4.33;;;43.80;27.20;;;;;;5015079;28;20164;-71
2023/05/25 07:52:29;;;;;;;4.77;4.03;;;44.30;26.40;;;;;;5015329;28;20641;-71
2023/05/25 07:54:54;;;;;;;5.60;4.30;;;44.70;26.00;;;;;;5015206;28;20414;-71
2023/05/25 07:57:20;;;;;;;3.80;3.43;;;45.20;25.70;;;;;;5014535;28;20665;-69
2023/05/25 07:59:45;;;;;;;5.77;4.07;;;45.80;24.90;;;;;;5015496;28;20455;-69
2023/05/25 08:02:11;;;;;;;5.13;4.23;;;46.30;25.20;;;;;;5015038;28;20633;-69
2023/05/25 08:04:37;;;;;;;6.57;4.20;;;46.80;24.40;;;;;;5014996;28;20164;-69
2023/05/25 08:07:02;;;;;;;4.10;3.73;;;47.10;24.10;;;;;;5014566;28;20203;-69
2023/05/25 08:09:28;;;;;;;4.80;3.97;;;47.60;24.10;;;;;;5014919;28;20178;-69
2023/05/25 08:11:53;;;;;;;5.77;4.03;;;48.10;23.80;;;;;;5014868;28;20203;-69
2023/05/25 08:14:19;;;;;;;8.37;4.47;;;48.60;23.30;;;;;;5014703;28;20176;-69
2023/05/25 08:16:45;;;;;;;9.40;5.20;;;48.90;22.90;;;;;;5014656;28;20173;-70
2023/05/25 08:19:10;;;;;;;7.27;5.23;;;49.20;22.40;;;;;;5014441;28;20908;-69
2023/05/25 08:21:36;;;;;;;4.80;4.20;;;49.40;22.40;;;;;;5014579;28;20175;-69
2023/05/25 08:24:07;;;;;;;4.97;4.10;;;49.30;22.00;;;;;;5014655;28;20255;-69
2023/05/25 08:26:35;;;;;;;5.33;4.00;;;47.50;21.70;;;;;;5014678;28;20169;-71
2023/05/25 08:29:04;;;;;;;8.50;4.17;;;45.70;22.50;;;;;;5014266;28;20924;-69
2023/05/25 08:31:32;;;;;;;5.13;4.20;;;44.90;22.90;;;;;;5014522;28;20391;-68
2023/05/25 08:33:59;;;;;;;6.63;4.53;;;43.50;23.00;;;;;;5014453;28;20573;-70
2023/05/25 08:36:26;;;;;;;6.43;5.00;;;41.40;23.70;;;;;;5013290;28;20433;-70
2023/05/25 08:38:52;;;;;;;6.23;5.10;;;39.50;25.00;;;;;;5014034;28;20485;-70
2023/05/25 08:41:18;;;;;;;6.33;4.13;;;39.40;26.20;;;;;;5014342;28;20468;-70
2023/05/25 08:43:44;;;;;;;4.80;4.27;;;40.40;26.30;;;;;;5014318;28;20179;-71
2023/05/25 08:46:10;;;;;;;5.30;4.67;;;40.50;25.20;;;;;;5014229;28;20374;-70
2023/05/25 08:48:37;;;;;;;8.00;3.90;;;39.30;25.00;;;;;;5013875;28;20290;-70
2023/05/25 08:51:15;;;;;;;4.50;4.10;;;38.80;25.90;;;;;;5013704;28;20571;-70
2023/05/25 08:53:43;;;;;;;8.50;5.57;;;37.50;26.20;;;;;;5013760;28;20414;-70
2023/05/25 08:56:19;;;;;;;8.10;5.03;;;36.00;26.70;;;;;;5013660;28;20968;-70
2023/05/25 08:58:51;;;;;;;6.73;3.83;;;34.60;27.90;;;;;;5011668;28;20919;-69
2023/05/25 09:01:19;;;;;;;6.40;3.70;;;35.20;29.40;;;;;;5011297;28;20746;-70
2023/05/25 09:03:48;;;;;;;5.87;2.93;;;37.50;28.60;;;;;;5013599;28;20408;-70
2023/05/25 09:06:16;;;;;;;5.73;3.53;;;40.10;27.50;;;;;;5013483;28;20406;-68
2023/05/25 09:08:43;;;;;;;4.17;2.83;;;41.80;26.40;;;;;;5013054;28;20401;-68
2023/05/25 09:11:10;;;;;;;4.87;3.90;;;43.50;25.20;;;;;;5013353;28;20401;-68
2023/05/25 09:13:36;;;;;;;6.50;3.70;;;45.00;24.50;;;;;;5013488;28;20895;-69
2023/05/25 09:16:01;;;;;;;5.13;3.93;;;46.40;23.70;;;;;;5013298;28;20378;-70
2023/05/25 09:18:27;;;;;;;5.00;3.33;;;47.80;23.20;;;;;;5012859;28;20401;-70
2023/05/25 09:20:53;;;;;;;3.63;3.40;;;49.00;22.40;;;;;;5013221;28;20171;-69
2023/05/25 09:23:20;;;;;;;4.43;3.93;;;49.80;21.50;;;;;;5013203;28;20556;-70
2023/05/25 09:25:47;;;;;;;4.03;3.57;;;49.10;21.00;;;;;;5013128;28;20399;-69
2023/05/25 09:28:12;;;;;;;4.60;4.07;;;49.10;21.50;;;;;;5012743;28;20430;-69
2023/05/25 09:30:38;;;;;;;4.70;2.97;;;49.70;21.30;;;;;;5013093;28;20386;-70
2023/05/25 09:33:11;;;;;;;5.00;3.50;;;50.40;21.10;;;;;;5013019;28;20195;-70
2023/05/25 09:35:36;;;;;;;3.83;3.53;;;51.00;20.70;;;;;;5012922;28;20251;-70
2023/05/25 09:38:02;;;;;;;4.10;3.53;;;50.00;20.30;;;;;;5012471;28;20585;-69
2023/05/25 09:40:27;;;;;;;3.53;3.23;;;47.90;20.30;;;;;;5012724;28;20178;-69
2023/05/25 09:42:53;;;;;;;4.47;4.07;;;46.00;21.40;;;;;;5012939;28;20652;-69
2023/05/25 09:45:18;;;;;;;3.80;2.93;;;44.60;21.70;;;;;;5012844;28;20280;-68
2023/05/25 09:47:44;;;;;;;4.23;3.83;;;43.50;22.40;;;;;;5012157;28;20211;-68
2023/05/25 09:50:10;;;;;;;3.80;3.43;;;42.20;22.80;;;;;;5012949;28;20248;-68
2023/05/25 09:52:36;;;;;;;4.70;3.47;;;41.90;23.70;;;;;;5012852;28;20649;-69
2023/05/25 09:55:02;;;;;;;6.20;4.40;;;42.20;23.80;;;;;;5012491;28;20486;-68
2023/05/25 09:57:28;;;;;;;5.07;3.60;;;41.50;23.60;;;;;;5012112;28;20681;-68
2023/05/25 09:59:53;;;;;;;4.53;4.13;;;41.70;24.30;;;;;;5012664;28;20465;-69
2023/05/25 10:02:19;;;;;;;4.97;3.20;;;43.10;24.50;;;;;;5017928;28;20240;-68
2023/05/25 10:04:45;;;;;;;4.43;4.03;;;44.70;23.90;;;;;;5032584;28;20505;-69
2023/05/25 10:07:12;;;;;;;6.13;4.10;;;45.50;22.90;;;;;;5031014;28;20401;-68
2023/05/25 10:09:42;;;;;;;5.70;5.20;;;45.90;22.90;;;;;;5031847;28;20259;-69
2023/05/25 10:12:10;;;;;;;4.43;4.00;;;47.00;22.10;;;;;;5032038;28;20733;-69
2023/05/25 10:14:37;;;;;;;3.83;3.40;;;46.10;21.70;;;;;;5032501;28;20495;-68
2023/05/25 10:17:08;;;;;;;5.10;4.70;;;44.50;22.10;;;;;;5031423;28;20461;-68
2023/05/25 10:19:41;;;;;;;4.83;4.40;;;43.40;22.60;;;;;;5032332;28;20455;-69
2023/05/25 10:22:25;;;;;;;5.67;4.60;;;43.70;23.40;;;;;;5032000;28;20463;-68
2023/05/25 10:24:55;;;;;;;7.10;4.70;;;45.10;23.30;;;;;;5032339;28;20369;-68
2023/05/25 10:27:24;;;;;;;6.63;4.00;;;46.60;22.30;;;;;;5031546;28;20426;-68
2023/05/25 10:29:51;;;;;;;4.17;3.80;;;48.10;22.10;;;;;;5032161;28;20377;-68
2023/05/25 10:32:17;;;;;;;5.57;3.67;;;49.40;21.50;;;;;;5031948;28;20511;-69
2023/05/25 10:34:45;;;;;;;3.90;3.60;;;50.20;21.10;;;;;;5032102;28;20458;-68
2023/05/25 10:37:13;;;;;;;5.23;3.90;;;50.90;20.90;;;;;;5020847;28;20486;-69
2023/05/25 10:39:41;;;;;;;4.47;4.03;;;51.00;20.70;;;;;;5012355;28;20380;-69
2023/05/25 10:42:07;;;;;;;4.37;4.03;;;51.40;20.30;;;;;;5012309;28;20414;-69
2023/05/25 10:44:33;;;;;;;4.20;3.80;;;51.60;19.80;;;;;;5012358;28;21084;-69
2023/05/25 10:46:59;;;;;;;3.50;3.20;;;51.90;20.00;;;;;;5011955;28;20172;-69
2023/05/25 10:49:34;;;;;;;4.03;3.60;;;52.50;20.20;;;;;;5012236;28;20172;-69
2023/05/25 10:52:04;;;;;;;4.50;4.10;;;53.10;20.00;;;;;;5012191;28;20395;-68
2023/05/25 10:54:34;;;;;;;3.50;3.27;;;53.00;19.50;;;;;;5012205;28;20408;-68
2023/05/25 10:57:16;;;;;;;4.67;4.20;;;51.10;19.30;;;;;;5011541;28;20542;-68
2023/05/25 10:59:44;;;;;;;4.83;4.43;;;50.00;19.90;;;;;;5014725;28;20909;-68
2023/05/25 11:02:10;;;;;;;4.43;3.90;;;49.70;20.10;;;;;;5016269;28;20384;-68
2023/05/25 11:04:36;;;;;;;6.27;4.63;;;50.40;20.50;;;;;;5015096;28;20433;-69
2023/05/25 11:07:01;;;;;;;7.50;6.80;;;50.70;19.80;;;;;;5015779;28;20411;-68
2023/05/25 11:09:32;;;;;;;5.80;4.47;;;48.90;19.70;;;;;;5014811;28;20790;-69
2023/05/25 11:11:58;;;;;;;4.53;4.20;;;47.80;19.80;;;;;;5015978;28;20255;-69
2023/05/25 11:14:30;;;;;;;4.60;4.30;;;47.30;20.50;;;;;;5016014;28;20866;-68
2023/05/25 11:17:17;;;;;;;4.77;4.30;;;48.20;20.90;;;;;;5015138;28;20994;-68
2023/05/25 11:19:50;;;;;;;4.50;4.07;;;49.30;20.40;;;;;;5015590;28;20465;-69
2023/05/25 11:22:22;;;;;;;4.00;3.47;;;50.60;20.50;;;;;;5015825;28;20918;-69
2023/05/25 11:24:52;;;;;;;4.87;4.17;;;51.50;20.30;;;;;;5015693;28;20404;-69
2023/05/25 11:27:26;;;;;;;5.70;3.97;;;52.20;20.10;;;;;;5015314;28;20398;-69
2023/05/25 11:29:53;;;;;;;5.23;4.83;;;53.10;19.40;;;;;;5015512;28;20427;-69
2023/05/25 11:32:19;;;;;;;4.90;4.00;;;53.70;19.00;;;;;;5015732;28;20399;-70
2023/05/25 11:34:47;;;;;;;4.70;4.20;;;53.10;18.60;;;;;;5015057;28;20623;-68
2023/05/25 11:37:16;;;;;;;3.73;3.43;;;52.50;18.70;;;;;;5014283;28;20545;-68
2023/05/25 11:39:46;;;;;;;4.00;3.37;;;51.30;18.40;;;;;;5010206;28;20407;-68
2023/05/25 11:42:14;;;;;;;5.40;4.10;;;49.10;18.40;;;;;;5014908;28;20767;-68
2023/05/25 11:44:40;;;;;;;3.83;3.47;;;47.60;19.20;;;;;;5015481;28;20743;-69
2023/05/25 11:47:07;;;;;;;3.50;3.03;;;48.00;20.30;;;;;;5014829;28;20557;-69
2023/05/25 11:49:34;;;;;;;4.63;3.53;;;48.70;19.80;;;;;;5015293;28;20393;-69
2023/05/25 11:52:05;;;;;;;4.30;3.40;;;47.60;19.30;;;;;;5015303;28;20381;-68
2023/05/25 11:54:31;;;;;;;2.87;2.67;;;47.70;19.90;;;;;;5014453;28;20963;-70
2023/05/25 11:56:58;;;;;;;3.30;3.00;;;48.40;20.20;;;;;;5014533;28;20436;-69
2023/05/25 11:59:28;;;;;;;3.20;2.93;;;49.30;20.10;;;;;;5014754;28;20879;-69
2023/05/25 12:02:03;;;;;;;4.47;3.10;;;49.80;19.50;;;;;;5015044;28;20436;-69
2023/05/25 12:04:31;;;;;;;6.10;3.43;;;48.90;19.80;;;;;;5014880;28;20369;-69
2023/05/25 12:07:04;;;;;;;3.67;3.37;;;49.10;19.60;;;;;;5014718;28;20419;-69
2023/05/25 12:09:30;;;;;;;3.20;2.90;;;48.30;19.30;;;;;;5014864;28;20374;-69
2023/05/25 12:11:56;;;;;;;2.80;2.60;;;48.00;19.80;;;;;;5014893;28;20384;-69
2023/05/25 12:14:22;;;;;;;3.30;3.00;;;48.60;19.80;;;;;;5014799;28;20771;-70
2023/05/25 12:16:49;;;;;;;3.77;2.70;;;49.20;19.70;;;;;;5014576;28;20935;-70
2023/05/25 12:19:15;;;;;;;3.67;2.93;;;49.70;19.80;;;;;;5014666;28;20445;-69
2023/05/25 12:21:43;;;;;;;3.23;2.93;;;50.40;19.70;;;;;;5014578;28;20928;-70
2023/05/25 12:24:11;;;;;;;3.10;2.90;;;50.90;19.50;;;;;;5014668;28;20405;-69
2023/05/25 12:26:49;;;;;;;4.80;2.70;;;51.30;19.20;;;;;;5014703;28;20385;-69
2023/05/25 12:29:16;;;;;;;4.80;2.93;;;50.50;18.80;;;;;;5014514;28;20399;-69
2023/05/25 12:31:41;;;;;;;3.37;3.10;;;49.80;19.30;;;;;;5014533;28;20385;-69
2023/05/25 12:34:11;;;;;;;2.80;2.60;;;49.60;19.10;;;;;;5014516;28;20751;-69
2023/05/25 12:36:50;;;;;;;5.00;3.13;;;49.40;19.00;;;;;;5014316;28;20226;-69
2023/05/25 12:39:38;;;;;;;5.20;2.70;;;49.30;19.20;;;;;;5014389;28;20403;-69
2023/05/25 12:42:06;;;;;;;3.27;3.00;;;49.30;19.30;;;;;;5014205;28;20473;-70
2023/05/25 12:44:32;;;;;;;3.83;2.60;;;48.90;19.10;;;;;;5014374;28;21124;-69
2023/05/25 12:47:21;;;;;;;3.23;2.93;;;48.00;19.40;;;;;;5013817;28;20403;-69
2023/05/25 12:49:50;;;;;;;3.63;3.33;;;45.60;19.20;;;;;;5014378;28;20952;-68
2023/05/25 12:52:32;;;;;;;4.63;2.80;;;43.00;20.10;;;;;;5014224;28;20381;-68